createdAt,value
2017-01-07T00:01:58.418Z,88.039
2017-01-07T00:04:50.498Z,88.838
2017-01-07T00:07:42.548Z,88.359
2017-01-07T00:10:35.826Z,86.767
2017-01-07T00:13:25.303Z,87.291
2017-01-07T00:16:19.449Z,86.804
2017-01-07T00:22:03.086Z,85.519
2017-01-07T00:24:54.135Z,85.271
2017-01-07T00:27:48.042Z,85.146
2017-01-07T00:30:38.755Z,84.712
2017-01-07T00:33:30.851Z,83.957
2017-01-07T00:36:25.865Z,84.182
2017-01-07T00:39:17.570Z,84.006
2017-01-07T00:42:09.564Z,83.565
2017-01-07T00:45:00.230Z,83.382
2017-01-07T00:47:52.418Z,83.462
2017-01-07T00:50:47.086Z,83.430
2017-01-07T00:53:36.795Z,83.603
2017-01-07T00:59:22.012Z,83.958
2017-01-07T01:02:14.957Z,83.839
2017-01-07T01:05:08.538Z,83.488
2017-01-07T01:07:59.057Z,83.644
2017-01-07T01:10:53.788Z,83.479
2017-01-07T01:13:44.337Z,84.581
2017-01-07T01:16:38.092Z,83.912
2017-01-07T01:19:30.943Z,83.920
2017-01-07T01:22:22.721Z,84.708
2017-01-07T01:25:17.470Z,83.767
2017-01-07T01:31:02.171Z,84.678
2017-01-07T01:33:53.231Z,84.196
2017-01-07T01:36:47.656Z,83.846
2017-01-07T01:39:40.506Z,83.828
2017-01-07T01:45:24.439Z,83.108
2017-01-07T01:48:17.376Z,82.546
2017-01-07T01:51:10.147Z,82.964
2017-01-07T01:56:56.346Z,82.581
2017-01-07T01:59:48.558Z,83.389
2017-01-07T02:02:43.110Z,83.270
2017-01-07T02:05:35.539Z,82.784
2017-01-07T02:08:27.835Z,83.498
2017-01-07T02:11:21.498Z,83.566
2017-01-07T02:14:14.050Z,83.537
2017-01-07T02:17:08.081Z,84.083
2017-01-07T02:20:01.966Z,82.760
2017-01-07T02:22:54.793Z,82.697
2017-01-07T02:25:45.463Z,82.269
2017-01-07T02:28:38.376Z,82.859
2017-01-07T02:34:23.683Z,82.496
2017-01-07T02:37:18.315Z,82.656
2017-01-07T02:43:04.105Z,83.384
2017-01-07T02:45:57.193Z,82.462
2017-01-07T02:54:35.164Z,82.720
2017-01-07T02:57:30.028Z,82.205
2017-01-07T03:00:21.148Z,82.260
2017-01-07T03:09:01.963Z,81.967
2017-01-07T03:11:53.520Z,81.966
2017-01-07T03:14:48.354Z,81.471
2017-01-07T03:17:41.340Z,81.951
2017-01-07T03:23:28.458Z,81.307
2017-01-07T03:26:18.807Z,82.159
2017-01-07T03:29:11.739Z,81.016
2017-01-07T03:32:04.936Z,81.213
2017-01-07T03:34:58.579Z,80.994
2017-01-07T03:37:51.044Z,81.346
2017-01-07T03:40:44.514Z,80.804
2017-01-07T03:43:38.807Z,80.577
2017-01-07T03:52:16.403Z,81.706
2017-01-07T03:55:09.432Z,81.020
2017-01-07T03:58:03.826Z,81.239
2017-01-07T04:00:57.183Z,81.097
2017-01-07T04:06:44.564Z,79.866
2017-01-07T04:09:35.970Z,80.081
2017-01-07T04:12:30.665Z,79.889
2017-01-07T04:15:22.092Z,79.694
2017-01-07T04:18:15.104Z,80.019
2017-01-07T04:21:08.874Z,80.431
2017-01-07T04:24:03.037Z,80.418
2017-01-07T04:26:54.965Z,79.748
2017-01-07T04:29:48.097Z,80.048
2017-01-07T04:32:42.444Z,80.290
2017-01-07T04:35:36.104Z,80.280
2017-01-07T04:38:29.086Z,80.238
2017-01-07T04:44:16.111Z,80.208
2017-01-07T04:47:09.256Z,80.212
2017-01-07T04:50:00.711Z,80.174
2017-01-07T04:52:53.821Z,79.814
2017-01-07T04:58:40.919Z,79.121
2017-01-07T05:01:34.104Z,79.073
2017-01-07T05:04:27.175Z,79.199
2017-01-07T05:07:19.495Z,78.661
2017-01-07T05:10:14.423Z,78.689
2017-01-07T05:13:07.570Z,79.714
2017-01-07T05:15:59.547Z,79.579
2017-01-07T05:18:52.671Z,78.833
2017-01-07T05:21:47.357Z,79.126
2017-01-07T05:24:40.417Z,79.519
2017-01-07T05:27:31.869Z,79.665
2017-01-07T05:30:25.676Z,79.820
2017-01-07T05:33:20.711Z,79.527
2017-01-07T05:36:12.929Z,79.103
2017-01-07T05:39:06.108Z,79.394
2017-01-07T05:41:59.364Z,78.926
2017-01-07T05:44:51.573Z,79.027
2017-01-07T05:47:43.808Z,78.660
2017-01-07T05:50:38.823Z,78.554
2017-01-07T05:53:30.232Z,78.576
2017-01-07T05:59:19.172Z,79.002
2017-01-07T06:02:09.633Z,78.586
2017-01-07T06:07:57.740Z,78.726
2017-01-07T06:10:51.053Z,79.093
2017-01-07T06:13:45.242Z,79.058
2017-01-07T06:16:37.579Z,79.645
2017-01-07T06:19:30.665Z,78.646
2017-01-07T06:22:23.827Z,78.462
2017-01-07T06:25:15.669Z,78.696
2017-01-07T06:28:09.725Z,78.779
2017-01-07T06:31:03.835Z,78.924
2017-01-07T06:36:50.992Z,79.151
2017-01-07T06:39:44.215Z,78.592
2017-01-07T06:42:36.283Z,79.005
2017-01-07T06:45:29.408Z,79.875
2017-01-07T06:48:23.708Z,79.105
2017-01-07T06:51:14.189Z,80.071
2017-01-07T06:57:03.239Z,80.164
2017-01-07T06:59:55.527Z,80.060
2017-01-07T07:02:46.958Z,80.367
2017-01-07T07:05:40.205Z,80.174
2017-01-07T07:08:35.959Z,79.879
2017-01-07T07:17:12.964Z,79.941
2017-01-07T07:20:09.382Z,80.077
2017-01-07T07:23:00.554Z,80.244
2017-01-07T07:25:53.771Z,80.288
2017-01-07T07:28:49.447Z,80.505
2017-01-07T07:34:34.688Z,80.425
2017-01-07T07:37:26.147Z,80.730
2017-01-07T07:40:20.941Z,80.741
2017-01-07T07:43:13.061Z,80.832
2017-01-07T07:46:06.175Z,80.891
2017-01-07T07:51:53.303Z,80.720
2017-01-07T07:54:46.027Z,81.637
2017-01-07T07:57:39.243Z,81.752
2017-01-07T08:00:33.600Z,81.012
2017-01-07T08:03:25.639Z,81.130
2017-01-07T08:06:18.653Z,81.037
2017-01-07T08:09:11.808Z,80.945
2017-01-07T08:12:05.680Z,81.162
2017-01-07T08:14:58.854Z,81.114
2017-01-07T08:17:52.011Z,80.594
2017-01-07T08:20:46.161Z,81.193
2017-01-07T08:23:39.355Z,80.725
2017-01-07T08:32:17.442Z,80.041
2017-01-07T08:35:12.183Z,79.910
2017-01-07T08:38:05.396Z,79.975
2017-01-07T08:40:56.853Z,80.086
2017-01-07T08:43:49.950Z,80.378
2017-01-07T08:46:43.149Z,79.958
2017-01-07T08:49:38.003Z,80.006
2017-01-07T08:52:30.115Z,79.776
2017-01-07T08:55:24.297Z,79.762
2017-01-07T09:01:09.875Z,79.995
2017-01-07T09:04:04.149Z,80.007
2017-01-07T09:06:56.225Z,79.570
2017-01-07T09:09:49.901Z,78.968
2017-01-07T09:12:43.030Z,78.839
2017-01-07T09:15:35.897Z,79.304
2017-01-07T09:18:30.982Z,78.762
2017-01-07T09:21:22.643Z,79.120
2017-01-07T09:24:14.669Z,79.079
2017-01-07T09:27:08.984Z,78.781
2017-01-07T09:30:03.504Z,78.910
2017-01-07T09:35:48.465Z,78.663
2017-01-07T09:38:43.406Z,78.940
2017-01-07T09:41:35.084Z,79.242
2017-01-07T09:44:29.883Z,79.155
2017-01-07T09:53:07.962Z,79.391
2017-01-07T09:56:03.024Z,79.034
2017-01-07T09:58:56.440Z,79.390
2017-01-07T10:01:48.506Z,79.355
2017-01-07T10:04:42.932Z,79.397
2017-01-07T10:07:34.510Z,79.309
2017-01-07T10:10:27.848Z,79.177
2017-01-07T10:13:22.787Z,79.345
2017-01-07T10:16:14.328Z,78.642
2017-01-07T10:19:10.151Z,78.969
2017-01-07T10:22:03.383Z,79.131
2017-01-07T10:24:55.812Z,78.526
2017-01-07T10:27:49.122Z,78.608
2017-01-07T10:30:42.259Z,78.968
2017-01-07T10:33:35.443Z,78.775
2017-01-07T10:36:27.174Z,78.322
2017-01-07T10:39:20.328Z,78.117
2017-01-07T10:42:15.149Z,78.207
2017-01-07T10:45:06.725Z,77.981
2017-01-07T10:47:59.913Z,77.515
2017-01-07T10:50:53.143Z,78.218
2017-01-07T10:53:46.894Z,78.096
2017-01-07T10:56:41.742Z,78.424
2017-01-07T11:02:28.402Z,78.090
2017-01-07T11:05:20.113Z,78.174
2017-01-07T11:08:15.827Z,79.253
2017-01-07T11:11:07.214Z,78.750
2017-01-07T11:13:59.935Z,78.775
2017-01-07T11:19:49.293Z,78.091
2017-01-07T11:22:39.812Z,78.070
2017-01-07T11:25:34.880Z,77.718
2017-01-07T11:28:28.181Z,78.055
2017-01-07T11:31:19.844Z,77.666
2017-01-07T11:34:13.945Z,77.892
2017-01-07T11:37:07.933Z,77.361
2017-01-07T11:40:01.110Z,77.655
2017-01-07T11:42:52.832Z,77.784
2017-01-07T11:45:45.984Z,77.684
2017-01-07T11:48:39.191Z,78.513
2017-01-07T11:51:35.145Z,77.485
2017-01-07T11:54:26.722Z,77.142
2017-01-07T11:57:19.038Z,77.319
2017-01-07T12:03:05.724Z,76.836
2017-01-07T12:05:59.131Z,76.730
2017-01-07T12:08:55.228Z,77.436
2017-01-07T12:11:45.740Z,77.649
2017-01-07T12:14:39.043Z,78.363
2017-01-07T12:17:34.037Z,79.355
2017-01-07T12:20:25.537Z,79.330
2017-01-07T12:23:20.651Z,79.941
2017-01-07T12:26:13.999Z,80.534
2017-01-07T12:29:07.006Z,81.568
2017-01-07T12:31:58.683Z,81.470
2017-01-07T12:34:54.504Z,81.417
2017-01-07T12:37:45.243Z,81.067
2017-01-07T12:40:40.233Z,82.135
2017-01-07T12:43:33.457Z,81.975
2017-01-07T12:46:24.997Z,82.106
2017-01-07T12:49:19.138Z,82.696
2017-01-07T12:52:14.405Z,82.462
2017-01-07T12:55:04.907Z,82.771
2017-01-07T12:57:58.826Z,82.948
2017-01-07T13:00:53.253Z,84.442
2017-01-07T13:03:44.780Z,84.452
2017-01-07T13:06:38.098Z,85.339
2017-01-07T13:09:31.352Z,84.556
2017-01-07T13:15:18.800Z,86.067
2017-01-07T13:18:12.732Z,84.975
2017-01-07T13:21:06.060Z,85.028
2017-01-07T13:23:58.366Z,87.087
2017-01-07T13:26:52.660Z,85.602
2017-01-07T13:32:37.747Z,86.784
2017-01-07T13:35:31.020Z,85.759
2017-01-07T13:38:27.311Z,84.958
2017-01-07T13:41:18.392Z,86.307
2017-01-07T13:44:11.171Z,85.583
2017-01-07T13:47:05.078Z,84.935
2017-01-07T13:49:57.635Z,85.653
2017-01-07T13:52:51.622Z,85.042
2017-01-07T13:55:46.031Z,85.169
2017-01-07T13:58:39.287Z,86.140
2017-01-07T14:04:24.451Z,85.421
2017-01-07T14:07:17.839Z,85.448
2017-01-07T14:10:11.665Z,86.052
2017-01-07T14:15:57.596Z,86.600
2017-01-07T14:18:52.656Z,89.287
2017-01-07T14:21:45.925Z,89.387
2017-01-07T14:24:38.913Z,89.748
2017-01-07T14:27:31.607Z,90.583
2017-01-07T14:30:25.600Z,90.132
2017-01-07T14:33:17.679Z,91.107
2017-01-07T14:36:11.907Z,91.227
2017-01-07T14:39:05.429Z,90.084
2017-01-07T14:41:58.617Z,91.428
2017-01-07T14:50:38.920Z,92.996
2017-01-07T14:53:30.550Z,92.252
2017-01-07T14:56:24.439Z,92.674
2017-01-07T14:59:17.545Z,91.783
2017-01-07T15:02:10.870Z,92.821
2017-01-07T15:05:02.547Z,91.108
2017-01-07T15:07:57.306Z,91.625
2017-01-07T15:10:50.446Z,92.169
2017-01-07T15:13:41.769Z,93.085
2017-01-07T15:22:24.171Z,93.425
2017-01-07T15:25:16.309Z,92.341
2017-01-07T15:28:09.540Z,93.702
2017-01-07T15:31:02.617Z,94.287
2017-01-07T15:33:55.826Z,93.918
2017-01-07T15:36:47.900Z,95.282
2017-01-07T15:39:42.845Z,94.708
2017-01-07T15:45:28.967Z,94.466
2017-01-07T15:48:22.156Z,94.792
2017-01-07T15:51:15.707Z,93.601
2017-01-07T15:54:07.259Z,95.364
2017-01-07T15:57:00.439Z,95.610
2017-01-07T15:59:55.335Z,95.739
2017-01-07T16:02:47.463Z,94.665
2017-01-07T16:05:41.540Z,95.879
2017-01-07T16:08:33.103Z,94.653
2017-01-07T16:11:27.937Z,95.212
2017-01-07T16:14:19.385Z,95.375
2017-01-07T16:20:05.581Z,96.281
2017-01-07T16:25:51.753Z,96.632
2017-01-07T16:28:46.809Z,97.096
2017-01-07T16:31:39.648Z,96.111
2017-01-07T16:34:31.737Z,97.024
2017-01-07T16:37:27.098Z,96.842
2017-01-07T16:43:13.248Z,96.978
2017-01-07T16:46:04.691Z,95.700
2017-01-07T16:48:59.659Z,96.866
2017-01-07T16:51:53.596Z,97.296
2017-01-07T16:54:44.029Z,97.003
2017-01-07T16:57:38.179Z,95.260
2017-01-07T17:00:32.033Z,97.305
2017-01-07T17:03:25.053Z,96.794
2017-01-07T17:06:16.809Z,97.716
2017-01-07T17:09:09.904Z,97.464
2017-01-07T17:12:05.732Z,97.006
2017-01-07T17:14:56.126Z,97.222
2017-01-07T17:17:51.017Z,98.050
2017-01-07T17:20:44.555Z,97.473
2017-01-07T17:23:37.407Z,97.802
2017-01-07T17:26:28.699Z,97.825
2017-01-07T17:29:22.489Z,97.403
2017-01-07T17:32:14.651Z,97.644
2017-01-07T17:35:09.431Z,98.040
2017-01-07T17:38:02.459Z,98.039
2017-01-07T17:40:55.489Z,97.104
2017-01-07T17:43:46.812Z,97.547
2017-01-07T17:46:40.357Z,96.534
2017-01-07T17:49:33.007Z,97.897
2017-01-07T17:52:27.770Z,96.626
2017-01-07T17:55:20.779Z,97.818
2017-01-07T17:58:12.031Z,96.607
2017-01-07T18:01:05.593Z,97.170
2017-01-07T18:03:59.843Z,97.750
2017-01-07T18:06:54.000Z,97.528
2017-01-07T18:09:44.544Z,97.304
2017-01-07T18:12:37.744Z,97.777
2017-01-07T18:15:33.683Z,97.642
2017-01-07T18:18:26.855Z,98.333
2017-01-07T18:21:19.046Z,97.745
2017-01-07T18:24:11.520Z,98.377
2017-01-07T18:27:03.838Z,97.921
2017-01-07T18:29:57.137Z,97.828
2017-01-07T18:32:52.025Z,99.151
2017-01-07T18:35:45.264Z,98.728
2017-01-07T18:38:36.918Z,98.321
2017-01-07T18:41:31.762Z,98.066
2017-01-07T18:44:24.883Z,97.984
2017-01-07T18:53:03.230Z,98.284
2017-01-07T18:55:57.533Z,98.449
2017-01-07T18:58:51.500Z,98.722
2017-01-07T19:01:44.536Z,98.458
2017-01-07T19:04:37.858Z,97.845
2017-01-07T19:07:29.409Z,97.875
2017-01-07T19:10:25.237Z,97.216
2017-01-07T19:13:16.486Z,98.326
2017-01-07T19:16:10.917Z,98.551
2017-01-07T19:19:02.498Z,98.246
2017-01-07T19:21:57.483Z,97.916
2017-01-07T19:24:50.831Z,97.801
2017-01-07T19:27:44.100Z,98.209
2017-01-07T19:30:38.326Z,98.613
2017-01-07T19:33:30.005Z,98.845
2017-01-07T19:36:25.106Z,98.266
2017-01-07T19:39:15.780Z,98.148
2017-01-07T19:42:10.829Z,98.263
2017-01-07T19:45:04.110Z,97.982
2017-01-07T19:47:58.532Z,97.890
2017-01-07T19:50:50.092Z,98.721
2017-01-07T19:53:44.013Z,98.786
2017-01-07T19:56:35.683Z,98.174
2017-01-07T19:59:28.975Z,97.768
2017-01-07T20:02:23.937Z,98.026
2017-01-07T20:05:15.676Z,98.386
2017-01-07T20:08:08.982Z,97.926
2017-01-07T20:11:04.913Z,98.058
2017-01-07T20:13:57.295Z,98.102
2017-01-07T20:19:42.367Z,98.591
2017-01-07T20:22:36.356Z,98.315
2017-01-07T20:25:30.788Z,98.611
2017-01-07T20:28:23.335Z,99.062
2017-01-07T20:31:16.459Z,99.065
2017-01-07T20:34:08.904Z,98.585
2017-01-07T20:39:56.683Z,98.980
2017-01-07T20:42:50.830Z,98.635
2017-01-07T20:48:37.589Z,99.253
2017-01-07T20:51:29.355Z,98.926
2017-01-07T20:54:24.413Z,99.178
2017-01-07T20:57:18.801Z,99.019
2017-01-07T21:00:09.513Z,99.325
2017-01-07T21:03:04.647Z,99.013
2017-01-07T21:11:43.124Z,98.992
2017-01-07T21:14:38.094Z,98.695
2017-01-07T21:20:25.141Z,99.432
2017-01-07T21:23:16.762Z,99.500
2017-01-07T21:26:11.966Z,99.803
2017-01-07T21:29:05.348Z,99.767
2017-01-07T21:34:51.888Z,99.745
2017-01-07T21:37:43.847Z,99.788
2017-01-07T21:40:37.884Z,99.804
2017-01-07T21:43:32.239Z,99.187
2017-01-07T21:49:17.363Z,99.775
2017-01-07T21:55:04.585Z,99.874
2017-01-07T21:57:59.652Z,99.780
2017-01-07T22:00:53.086Z,99.990
2017-01-07T22:03:44.631Z,100.000
2017-01-07T22:06:37.819Z,100.000
2017-01-07T22:09:33.013Z,100.000
2017-01-07T22:12:26.381Z,99.933
2017-01-07T22:15:20.825Z,100.000
2017-01-07T22:18:13.133Z,100.000
2017-01-07T22:21:06.501Z,100.000
2017-01-07T22:23:58.148Z,100.000
2017-01-07T22:26:52.429Z,100.000
2017-01-07T22:29:44.771Z,100.000
2017-01-07T22:35:33.230Z,100.000
2017-01-07T22:38:24.990Z,99.875
2017-01-07T22:41:20.485Z,99.900
2017-01-07T22:44:13.259Z,99.810
2017-01-07T22:47:07.209Z,100.000
2017-01-07T22:50:00.643Z,99.576
2017-01-07T22:52:54.114Z,99.458
2017-01-07T22:55:45.950Z,99.264
2017-01-07T22:58:40.250Z,99.245
2017-01-07T23:01:33.465Z,99.677
2017-01-07T23:04:26.772Z,99.628
2017-01-07T23:07:21.259Z,99.612
2017-01-07T23:10:13.127Z,99.909
2017-01-07T23:13:08.462Z,99.961
2017-01-07T23:16:01.203Z,99.973
2017-01-07T23:18:55.412Z,100.000
2017-01-07T23:21:48.786Z,99.721
2017-01-07T23:24:42.926Z,99.513
2017-01-07T23:27:34.784Z,99.518
2017-01-07T23:30:28.257Z,99.888
2017-01-07T23:36:16.270Z,99.754
2017-01-07T23:39:08.636Z,99.679
2017-01-07T23:42:04.893Z,99.836
2017-01-07T23:44:57.291Z,99.918
2017-01-07T23:47:50.405Z,100.000
2017-01-07T23:50:44.754Z,100.000
2017-01-07T23:53:36.633Z,100.000
2017-01-07T23:56:31.812Z,100.000
2017-01-07T23:59:23.671Z,100.000
